Home   Weather   Switzerland   Thônex   Past weeks
Flag for Switzerland

Past Weather in Thônex, Geneva, Switzerland — Yesterday and Last 2 Weeks

Currently: 82 °F. Sunny. (Weather station: Geneva Cointrin Airport, Switzerland). See more current weather

Past Weather in Thônex — Graph

°F

Thônex Temperature Yesterday

Maximum temperature yesterday: 79 °F (at 3:50 pm)
Minimum temperature yesterday: 55 °F (at 5:50 am)
Average temperature yesterday: 69 °F

High & Low Weather Summary for the Past Weeks

 TemperatureHumidityPressure
High90 °F (Jul 9, 4:50 pm)100% (Jul 12, 12:50 am)30.18 "Hg (Jul 12, 12:50 am)
Low52 °F (Jul 14, 5:20 am)35% (Jul 8, 5:20 pm)29.80 "Hg (Jul 6, 9:20 am)
Average69 °F68%30.01 "Hg
* Reported Jul 3 6:20 pm — Jul 18 6:20 pm, Thônex. Weather by CustomWeather, © 2024

Note: Actual official high and low records may vary slightly from our data, if they occured in-between our weather recording intervals... More about our weather records

Thônex Weather History for the Previous 24 Hours

Scroll right to see more
 ConditionsComfort  
Time TempWeatherWind HumidityBarometerVisibility
6:20 pm
Thu, Jul 18
84 °FPassing clouds.6 mph43%30.09 "HgN/A
5:50 pm84 °FPassing clouds.5 mph43%30.09 "HgN/A
5:20 pm84 °FPassing clouds.7 mph40%30.12 "HgN/A
4:50 pm84 °FSunny.7 mph40%30.12 "Hg10 mi
4:20 pm82 °FPassing clouds.5 mph40%30.12 "HgN/A
3:50 pm82 °FPassing clouds.5 mph37%30.12 "HgN/A
3:20 pm81 °FPassing clouds.5 mph42%30.12 "HgN/A
2:50 pm79 °FSunny.7 mph48%30.15 "Hg10 mi
2:20 pm79 °FPassing clouds.5 mph51%30.15 "HgN/A
1:50 pm77 °FPassing clouds.5 mph54%30.15 "HgN/A
12:50 pm77 °FPassing clouds.7 mph54%30.15 "HgN/A
12:20 pm75 °FPassing clouds.3 mph57%30.15 "HgN/A
11:50 am73 °FPassing clouds.6 mph61%30.15 "HgN/A
11:20 am73 °FPassing clouds.6 mph65%30.15 "HgN/A
10:50 am73 °FPassing clouds.5 mph61%30.15 "HgN/A
10:20 am72 °FSunny.7 mph65%30.18 "Hg10 mi
9:50 am70 °FPassing clouds.5 mph64%30.18 "HgN/A
9:20 am70 °FPassing clouds.3 mph64%30.18 "HgN/A
8:50 am70 °FSunny.2 mph73%30.18 "Hg10 mi
8:20 am68 °FSunny.1 mph78%30.15 "Hg10 mi
7:50 am66 °FSunny.1 mph78%30.15 "Hg10 mi
7:20 am63 °FSunny.1 mph88%30.15 "Hg10 mi
6:50 am61 °FSunny.1 mph88%30.15 "Hg10 mi
6:20 am61 °FSunny.2 mph83%30.15 "Hg10 mi
5:50 am59 °FClear.1 mph88%30.15 "Hg10 mi
5:20 am61 °FClear.1 mph83%30.12 "Hg10 mi
4:20 am61 °FClear.1 mph88%30.12 "Hg10 mi
3:20 am63 °FClear.1 mph77%30.12 "Hg10 mi
2:50 am63 °FClear.2 mph83%30.12 "Hg10 mi
2:20 am63 °FClear.1 mph83%30.12 "Hg10 mi
1:50 am64 °FClear.1 mph78%30.12 "Hg10 mi
1:20 am66 °FClear.2 mph73%30.12 "Hg10 mi
12:50 am66 °FClear.2 mph73%30.12 "Hg10 mi
12:20 am66 °FClear.2 mph68%30.12 "Hg10 mi
11:50 pm
Wed, Jul 17
68 °FClear.3 mph64%30.12 "Hg10 mi
11:20 pm68 °FClear.5 mph64%30.12 "Hg10 mi
10:50 pm70 °FClear.6 mph60%30.12 "Hg10 mi
10:20 pm70 °FClear.6 mph60%30.12 "Hg10 mi
9:50 pm72 °FClear.6 mph57%30.12 "Hg10 mi
9:20 pm72 °FSunny.3 mph57%30.12 "Hg10 mi
8:50 pm75 °FSunny.6 mph50%30.12 "Hg10 mi
8:20 pm77 °FSunny.6 mph47%30.09 "Hg10 mi
7:50 pm79 °FSunny.6 mph45%30.09 "Hg10 mi
7:20 pm79 °FPassing clouds.6 mph42%30.09 "HgN/A
Weather by CustomWeather, © 2024

See weather overview